createdAt,value
2018-03-18T00:00:29.548Z,0.00
2018-03-18T00:01:29.524Z,0.00
2018-03-18T00:02:29.505Z,0.00
2018-03-18T00:03:29.475Z,0.00
2018-03-18T00:04:29.442Z,0.00
2018-03-18T00:05:29.417Z,0.00
2018-03-18T00:06:29.396Z,0.00
2018-03-18T00:07:29.372Z,0.00
2018-03-18T00:08:29.388Z,0.00
2018-03-18T00:09:29.315Z,0.00
2018-03-18T00:10:29.289Z,0.00
2018-03-18T00:11:29.261Z,0.00
2018-03-18T00:12:29.246Z,0.00
2018-03-18T00:13:29.216Z,0.00
2018-03-18T00:14:29.188Z,0.00
2018-03-18T00:15:29.174Z,0.00
2018-03-18T00:16:29.135Z,0.00
2018-03-18T00:17:29.113Z,0.00
2018-03-18T00:18:29.091Z,0.00
2018-03-18T00:19:29.110Z,0.00
2018-03-18T00:20:29.031Z,0.00
2018-03-18T00:21:29.004Z,0.00
2018-03-18T00:22:28.984Z,0.00
2018-03-18T00:23:28.952Z,0.00
2018-03-18T00:24:28.927Z,0.00
2018-03-18T00:25:28.907Z,0.00
2018-03-18T00:26:28.872Z,0.00
2018-03-18T00:27:28.851Z,0.00
2018-03-18T00:28:28.824Z,0.00
2018-03-18T00:29:28.806Z,0.00
2018-03-18T00:30:28.770Z,0.00
2018-03-18T00:31:28.747Z,0.00
2018-03-18T00:32:29.048Z,0.00
2018-03-18T00:33:28.999Z,0.00
2018-03-18T00:34:28.998Z,0.00
2018-03-18T00:35:28.896Z,0.00
2018-03-18T00:36:29.159Z,0.00
2018-03-18T00:37:29.122Z,0.00
2018-03-18T00:38:28.564Z,0.00
2018-03-18T00:39:28.543Z,0.00
2018-03-18T00:40:28.513Z,0.00
2018-03-18T00:41:29.201Z,0.00
2018-03-18T00:42:28.462Z,0.00
2018-03-18T00:43:28.437Z,0.00
2018-03-18T00:44:28.413Z,0.00
2018-03-18T00:45:28.387Z,0.00
2018-03-18T00:46:28.357Z,0.00
2018-03-18T00:47:28.332Z,0.00
2018-03-18T00:48:28.306Z,0.00
2018-03-18T00:49:28.282Z,0.00
2018-03-18T00:50:28.574Z,0.00
2018-03-18T00:51:28.236Z,0.00
2018-03-18T00:52:28.239Z,0.00
2018-03-18T00:53:28.194Z,0.00
2018-03-18T00:54:28.350Z,0.00
2018-03-18T00:55:28.335Z,0.00
2018-03-18T00:56:28.314Z,0.00
2018-03-18T00:57:28.382Z,0.00
2018-03-18T00:58:28.297Z,0.00
2018-03-18T00:59:28.662Z,0.00
2018-03-18T01:00:28.013Z,0.00
2018-03-18T01:01:27.967Z,0.00
2018-03-18T01:02:27.944Z,0.00
2018-03-18T01:03:27.918Z,0.00
2018-03-18T01:04:27.894Z,0.00
2018-03-18T01:05:27.873Z,0.00
2018-03-18T01:06:27.844Z,0.00
2018-03-18T01:07:27.812Z,0.00
2018-03-18T01:08:27.787Z,0.00
2018-03-18T01:09:27.765Z,0.00
2018-03-18T01:10:27.737Z,0.00
2018-03-18T01:11:27.713Z,0.00
2018-03-18T01:12:27.690Z,0.00
2018-03-18T01:13:27.665Z,0.00
2018-03-18T01:14:27.638Z,0.00
2018-03-18T01:15:27.606Z,0.00
2018-03-18T01:16:27.586Z,0.00
2018-03-18T01:17:27.555Z,0.00
2018-03-18T01:18:27.535Z,0.00
2018-03-18T01:19:27.500Z,0.00
2018-03-18T01:20:27.485Z,0.00
2018-03-18T01:21:27.453Z,0.00
2018-03-18T01:22:27.425Z,0.00
2018-03-18T01:23:27.407Z,0.00
2018-03-18T01:24:27.378Z,0.00
2018-03-18T01:25:27.353Z,0.00
2018-03-18T01:26:27.328Z,0.00
2018-03-18T01:27:27.294Z,0.00
2018-03-18T01:28:27.269Z,0.00
2018-03-18T01:29:27.244Z,0.00
2018-03-18T01:30:27.222Z,0.00
2018-03-18T01:31:27.198Z,0.00
2018-03-18T01:32:27.166Z,0.00
2018-03-18T01:33:27.143Z,0.00
2018-03-18T01:34:27.126Z,0.00
2018-03-18T01:35:27.094Z,0.00
2018-03-18T01:36:27.062Z,0.00
2018-03-18T01:37:27.042Z,0.00
2018-03-18T01:38:27.014Z,0.00
2018-03-18T01:39:26.982Z,0.00
2018-03-18T01:40:26.965Z,0.00
2018-03-18T01:41:26.934Z,0.00
2018-03-18T01:42:26.904Z,0.00
2018-03-18T01:43:26.881Z,0.00
2018-03-18T01:44:26.861Z,0.00
2018-03-18T01:45:26.832Z,0.00
2018-03-18T01:46:26.807Z,0.00
2018-03-18T01:47:26.777Z,0.00
2018-03-18T01:48:26.749Z,0.00
2018-03-18T01:49:26.724Z,0.00
2018-03-18T01:50:26.702Z,0.00
2018-03-18T01:51:26.674Z,0.00
2018-03-18T01:52:26.651Z,0.00
2018-03-18T01:53:26.618Z,0.00
2018-03-18T01:54:26.594Z,0.00
2018-03-18T01:55:26.571Z,0.00
2018-03-18T01:56:26.544Z,0.00
2018-03-18T01:57:26.526Z,0.00
2018-03-18T01:58:26.495Z,0.00
2018-03-18T01:59:26.472Z,0.00
2018-03-18T02:00:26.440Z,0.00
2018-03-18T02:01:26.417Z,0.00
2018-03-18T02:02:26.385Z,0.00
2018-03-18T02:03:26.364Z,0.00
2018-03-18T02:04:26.336Z,0.00
2018-03-18T02:05:26.312Z,0.00
2018-03-18T02:06:26.280Z,0.00
2018-03-18T02:07:26.264Z,0.00
2018-03-18T02:08:26.231Z,0.00
2018-03-18T02:09:26.206Z,0.00
2018-03-18T02:10:26.186Z,0.00
2018-03-18T02:11:26.159Z,0.00
2018-03-18T02:12:26.128Z,0.00
2018-03-18T02:13:26.112Z,0.00
2018-03-18T02:14:26.074Z,0.00
2018-03-18T02:15:26.048Z,0.00
2018-03-18T02:16:26.029Z,0.00
2018-03-18T02:17:26.003Z,0.00
2018-03-18T02:18:25.967Z,0.00
2018-03-18T02:19:25.945Z,0.00
2018-03-18T02:20:25.927Z,0.00
2018-03-18T02:21:25.895Z,0.00
2018-03-18T02:22:25.864Z,0.00
2018-03-18T02:23:25.840Z,0.00
2018-03-18T02:24:25.814Z,0.00
2018-03-18T02:25:25.793Z,0.00
2018-03-18T02:26:25.760Z,0.00
2018-03-18T02:27:25.739Z,0.00
2018-03-18T02:28:25.714Z,0.00
2018-03-18T02:29:25.681Z,0.00
2018-03-18T02:30:25.665Z,0.00
2018-03-18T02:31:25.629Z,0.00
2018-03-18T02:32:25.605Z,0.00
2018-03-18T02:33:25.582Z,0.00
2018-03-18T02:34:25.559Z,0.00
2018-03-18T02:35:25.527Z,0.00
2018-03-18T02:36:25.499Z,0.00
2018-03-18T02:37:25.475Z,0.00
2018-03-18T02:38:25.444Z,0.00
2018-03-18T02:39:25.449Z,0.00
2018-03-18T02:40:25.395Z,0.00
2018-03-18T02:41:25.373Z,0.00
2018-03-18T02:42:25.339Z,0.00
2018-03-18T02:43:25.315Z,0.00
2018-03-18T02:44:25.292Z,0.00
2018-03-18T02:46:25.239Z,0.00
2018-03-18T02:47:25.212Z,0.00
2018-03-18T02:48:25.187Z,0.00
2018-03-18T02:49:25.172Z,0.00
2018-03-18T02:50:25.135Z,0.00
2018-03-18T02:51:25.125Z,0.00
2018-03-18T02:52:25.088Z,0.00
2018-03-18T02:53:25.057Z,0.00
2018-03-18T02:54:25.035Z,0.00
2018-03-18T02:55:25.009Z,0.00
2018-03-18T02:56:24.978Z,0.00
2018-03-18T02:57:24.951Z,0.00
2018-03-18T02:58:24.927Z,0.00
2018-03-18T02:59:24.896Z,0.00
2018-03-18T03:00:24.878Z,0.00
2018-03-18T03:01:24.847Z,0.00
2018-03-18T03:02:24.821Z,0.00
2018-03-18T03:03:24.797Z,0.00
2018-03-18T03:04:24.771Z,0.00
2018-03-18T03:05:24.745Z,0.00
2018-03-18T03:06:24.715Z,0.00
2018-03-18T03:07:24.691Z,0.00
2018-03-18T03:08:24.666Z,0.00
2018-03-18T03:09:24.642Z,0.00
2018-03-18T03:10:24.614Z,0.00
2018-03-18T03:11:24.584Z,0.00
2018-03-18T03:12:24.557Z,0.00
2018-03-18T03:13:24.532Z,0.00
2018-03-18T03:14:24.504Z,0.00
2018-03-18T03:15:24.486Z,0.00
2018-03-18T03:16:24.453Z,0.00
2018-03-18T03:17:24.435Z,0.00
2018-03-18T03:18:24.405Z,0.00
2018-03-18T03:19:24.376Z,0.00
2018-03-18T03:20:24.350Z,0.00
2018-03-18T03:21:24.324Z,0.00
2018-03-18T03:22:24.293Z,0.00
2018-03-18T03:23:24.272Z,0.00
2018-03-18T03:24:24.243Z,0.00
2018-03-18T03:25:24.220Z,0.00
2018-03-18T03:26:24.190Z,0.00
2018-03-18T03:27:24.167Z,0.00
2018-03-18T03:28:24.140Z,0.00
2018-03-18T03:29:24.122Z,0.00
2018-03-18T03:30:24.084Z,0.00
2018-03-18T03:31:24.068Z,0.00
2018-03-18T03:32:24.036Z,0.00
2018-03-18T03:33:24.011Z,0.00
2018-03-18T03:34:23.983Z,0.00
2018-03-18T03:35:23.955Z,0.00
2018-03-18T03:36:23.953Z,0.00
2018-03-18T03:37:23.902Z,0.00
2018-03-18T03:38:23.875Z,0.00
2018-03-18T03:39:23.846Z,0.00
2018-03-18T03:40:23.823Z,0.00
2018-03-18T03:41:23.795Z,0.00
2018-03-18T03:42:23.772Z,0.00
2018-03-18T03:43:23.749Z,0.00
2018-03-18T03:44:23.719Z,0.00
2018-03-18T03:45:23.693Z,0.00
2018-03-18T03:46:23.671Z,0.00
2018-03-18T03:47:23.645Z,0.00
2018-03-18T03:48:23.626Z,0.00
2018-03-18T03:49:23.585Z,0.00
2018-03-18T03:50:23.565Z,0.00
2018-03-18T03:51:23.535Z,0.00
2018-03-18T03:52:23.508Z,0.00
2018-03-18T03:53:23.486Z,0.00
2018-03-18T03:54:23.461Z,0.00
2018-03-18T03:55:23.436Z,0.00
2018-03-18T03:56:23.408Z,0.00
2018-03-18T03:57:23.375Z,0.00
2018-03-18T03:58:23.356Z,0.00
2018-03-18T03:59:23.323Z,0.00
2018-03-18T04:00:23.300Z,0.00
2018-03-18T04:01:23.278Z,0.00
2018-03-18T04:02:23.244Z,0.00
2018-03-18T04:03:23.219Z,0.00
2018-03-18T04:04:23.190Z,0.00
2018-03-18T04:05:23.173Z,0.00
2018-03-18T04:06:23.144Z,0.00
2018-03-18T04:07:23.124Z,0.00
2018-03-18T04:08:23.086Z,0.00
2018-03-18T04:09:23.063Z,0.00
2018-03-18T04:10:23.035Z,0.00
2018-03-18T04:11:23.008Z,0.00
2018-03-18T04:12:22.984Z,0.00
2018-03-18T04:13:22.954Z,0.00
2018-03-18T04:14:22.929Z,0.00
2018-03-18T04:15:22.908Z,0.00
2018-03-18T04:16:22.875Z,0.00
2018-03-18T04:17:22.849Z,0.00
2018-03-18T04:18:22.823Z,0.00
2018-03-18T04:19:22.795Z,0.00
2018-03-18T04:20:22.775Z,0.00
2018-03-18T04:21:22.746Z,0.00
2018-03-18T04:22:22.714Z,0.00
2018-03-18T04:23:22.692Z,0.00
2018-03-18T04:24:22.665Z,0.00
2018-03-18T04:25:22.641Z,0.00
2018-03-18T04:26:22.612Z,0.00
2018-03-18T04:27:22.588Z,0.00
2018-03-18T04:28:22.564Z,0.00
2018-03-18T04:29:22.531Z,0.00
2018-03-18T04:30:22.506Z,0.00
2018-03-18T04:31:22.481Z,0.00
2018-03-18T04:32:22.454Z,0.00
2018-03-18T04:33:22.424Z,0.00
2018-03-18T04:34:22.402Z,0.00
2018-03-18T04:35:22.373Z,0.00
2018-03-18T04:36:22.345Z,0.00
2018-03-18T04:37:22.319Z,0.00
2018-03-18T04:38:22.294Z,0.00
2018-03-18T04:39:22.269Z,0.00
2018-03-18T04:40:22.246Z,0.00
2018-03-18T04:41:22.213Z,0.00
2018-03-18T04:42:22.191Z,0.00
2018-03-18T04:43:22.168Z,0.00
2018-03-18T04:44:22.135Z,0.00
2018-03-18T04:45:22.107Z,0.00
2018-03-18T04:46:22.084Z,0.00
2018-03-18T04:47:22.054Z,0.00
2018-03-18T04:48:22.033Z,0.00
2018-03-18T04:49:22.006Z,0.00
2018-03-18T04:50:21.975Z,0.00
2018-03-18T04:51:21.949Z,0.00
2018-03-18T04:52:21.926Z,0.00
2018-03-18T04:53:21.900Z,0.00
2018-03-18T04:54:21.870Z,0.00
2018-03-18T04:55:21.855Z,0.00
2018-03-18T04:56:21.815Z,0.00
2018-03-18T04:57:21.795Z,0.00
2018-03-18T04:58:21.765Z,0.00
2018-03-18T04:59:21.741Z,0.00
2018-03-18T05:00:21.711Z,0.00
2018-03-18T05:01:21.685Z,0.00
2018-03-18T05:02:21.658Z,0.00
2018-03-18T05:03:21.631Z,0.00
2018-03-18T05:04:21.606Z,0.00
2018-03-18T05:05:21.585Z,0.00
2018-03-18T05:06:21.566Z,0.00
2018-03-18T05:07:21.546Z,0.00
2018-03-18T05:08:21.499Z,0.00
2018-03-18T05:09:21.477Z,0.00
2018-03-18T05:10:21.448Z,0.00
2018-03-18T05:11:21.420Z,0.00
2018-03-18T05:12:21.396Z,0.00
2018-03-18T05:13:21.366Z,0.00
2018-03-18T05:14:21.342Z,0.00
2018-03-18T05:15:21.313Z,0.00
2018-03-18T05:16:21.284Z,0.00
2018-03-18T05:17:21.265Z,0.00
2018-03-18T05:18:21.235Z,0.00
2018-03-18T05:19:21.208Z,0.00
2018-03-18T05:20:21.179Z,0.00
2018-03-18T05:21:21.155Z,0.00
2018-03-18T05:22:21.133Z,0.00
2018-03-18T05:23:21.101Z,0.00
2018-03-18T05:24:21.077Z,0.00
2018-03-18T05:25:21.054Z,0.00
2018-03-18T05:26:21.022Z,0.00
2018-03-18T05:27:20.994Z,0.00
2018-03-18T05:28:20.974Z,0.00
2018-03-18T05:29:20.943Z,0.00
2018-03-18T05:30:20.919Z,0.00
2018-03-18T05:31:20.896Z,0.00
2018-03-18T05:32:20.864Z,0.00
2018-03-18T05:33:20.846Z,0.00
2018-03-18T05:34:20.810Z,0.00
2018-03-18T05:35:20.784Z,0.00
2018-03-18T05:36:20.759Z,0.00
2018-03-18T05:37:20.735Z,0.00
2018-03-18T05:38:20.704Z,0.00
2018-03-18T05:39:20.675Z,0.00
2018-03-18T05:40:20.661Z,0.00
2018-03-18T05:41:20.634Z,0.00
2018-03-18T05:42:20.604Z,0.00
2018-03-18T05:43:20.575Z,0.00
2018-03-18T05:44:20.556Z,0.00
2018-03-18T05:45:20.523Z,0.00
2018-03-18T05:46:20.495Z,0.00
2018-03-18T05:47:20.467Z,0.00
2018-03-18T05:48:20.447Z,0.00
2018-03-18T05:49:20.415Z,0.00
2018-03-18T05:50:20.386Z,0.00
2018-03-18T05:51:20.364Z,0.00
2018-03-18T05:52:20.335Z,0.00
2018-03-18T05:53:20.306Z,0.00
2018-03-18T05:54:20.281Z,0.00
2018-03-18T05:55:20.254Z,0.00
2018-03-18T05:56:20.282Z,0.00
2018-03-18T05:57:20.206Z,0.00
2018-03-18T05:58:20.173Z,0.00
2018-03-18T05:59:20.147Z,0.00
2018-03-18T06:00:20.120Z,0.00
2018-03-18T06:01:20.094Z,0.00
2018-03-18T06:02:20.073Z,0.00
2018-03-18T06:03:20.045Z,0.00
2018-03-18T06:04:20.015Z,0.00
2018-03-18T06:05:19.990Z,0.00
2018-03-18T06:06:19.964Z,0.00
2018-03-18T06:07:19.936Z,0.00
2018-03-18T06:08:19.907Z,0.00
2018-03-18T06:09:19.880Z,0.00
2018-03-18T06:10:19.852Z,0.00
2018-03-18T06:11:19.831Z,0.00
2018-03-18T06:12:19.808Z,0.00
2018-03-18T06:13:19.776Z,0.00
2018-03-18T06:14:19.746Z,0.00
2018-03-18T06:15:19.725Z,0.00
2018-03-18T06:16:19.707Z,0.00
2018-03-18T06:17:19.672Z,0.00
2018-03-18T06:18:19.654Z,0.00
2018-03-18T06:19:19.615Z,0.00
2018-03-18T06:20:19.591Z,0.00
2018-03-18T06:21:19.561Z,0.00
2018-03-18T06:22:19.535Z,0.00
2018-03-18T06:23:19.516Z,5.63
2018-03-18T06:24:19.488Z,5.63
2018-03-18T06:25:19.547Z,5.63
2018-03-18T06:27:19.483Z,5.63
2018-03-18T06:28:19.375Z,5.63
2018-03-18T06:29:19.355Z,5.63
2018-03-18T06:30:19.324Z,5.63
2018-03-18T06:31:19.401Z,5.63
2018-03-18T06:32:19.279Z,5.63
2018-03-18T06:33:19.247Z,5.63
2018-03-18T06:34:19.215Z,5.63
2018-03-18T06:35:19.192Z,5.63
2018-03-18T06:36:19.168Z,5.63
2018-03-18T06:37:19.139Z,5.63
2018-03-18T06:38:19.109Z,5.63
2018-03-18T06:39:19.093Z,5.63
2018-03-18T06:40:19.061Z,5.63
2018-03-18T06:41:19.032Z,5.63
2018-03-18T06:42:19.003Z,5.63
2018-03-18T06:43:18.981Z,5.63
2018-03-18T06:44:18.952Z,5.63
2018-03-18T06:45:18.923Z,5.63
2018-03-18T06:46:18.902Z,5.63
2018-03-18T06:47:18.874Z,5.63
2018-03-18T06:48:18.846Z,5.63
2018-03-18T06:49:18.820Z,5.63
2018-03-18T06:50:18.791Z,5.63
2018-03-18T06:51:18.775Z,5.63
2018-03-18T06:52:18.745Z,5.63
2018-03-18T06:53:18.716Z,5.63
2018-03-18T06:54:18.691Z,5.63
2018-03-18T06:55:18.661Z,5.63
2018-03-18T06:56:18.641Z,5.63
2018-03-18T06:57:18.617Z,5.63
2018-03-18T06:58:18.583Z,5.63
2018-03-18T06:59:18.553Z,5.63
2018-03-18T07:00:18.533Z,5.63
2018-03-18T07:01:18.505Z,5.63
2018-03-18T07:02:18.477Z,5.63
2018-03-18T07:03:18.449Z,5.63
2018-03-18T07:04:18.424Z,5.63
2018-03-18T07:05:18.394Z,5.63
2018-03-18T07:06:18.368Z,5.63
2018-03-18T07:07:18.344Z,5.63
2018-03-18T07:08:18.314Z,5.63
2018-03-18T07:09:18.293Z,5.63
2018-03-18T07:10:18.265Z,11.25
2018-03-18T07:11:18.235Z,11.25
2018-03-18T07:12:18.212Z,11.25
2018-03-18T07:13:18.188Z,11.25
2018-03-18T07:14:18.154Z,11.25
2018-03-18T07:15:18.130Z,11.25
2018-03-18T07:16:18.116Z,11.25
2018-03-18T07:17:18.086Z,11.25
2018-03-18T07:18:18.054Z,11.25
2018-03-18T07:19:18.028Z,11.25
2018-03-18T07:20:18.003Z,11.25
2018-03-18T07:21:17.985Z,11.25
2018-03-18T07:22:17.948Z,11.25
2018-03-18T07:23:17.922Z,11.25
2018-03-18T07:24:17.894Z,11.25
2018-03-18T07:25:17.871Z,11.25
2018-03-18T07:26:17.850Z,11.25
2018-03-18T07:27:17.816Z,11.25
2018-03-18T07:28:17.789Z,11.25
2018-03-18T07:29:17.768Z,11.25
2018-03-18T07:30:17.736Z,11.25
2018-03-18T07:31:17.710Z,11.25
2018-03-18T07:32:17.680Z,11.25
2018-03-18T07:33:17.657Z,11.25
2018-03-18T07:34:17.638Z,11.25
2018-03-18T07:35:17.601Z,11.25
2018-03-18T07:36:17.577Z,11.25
2018-03-18T07:37:17.553Z,11.25
2018-03-18T07:38:17.522Z,11.25
2018-03-18T07:39:17.539Z,11.25
2018-03-18T07:40:17.469Z,11.25
2018-03-18T07:41:17.444Z,11.25
2018-03-18T07:42:17.415Z,11.25
2018-03-18T07:43:17.388Z,11.25
2018-03-18T07:44:17.362Z,11.25
2018-03-18T07:45:17.338Z,16.88
2018-03-18T07:46:17.315Z,16.88
2018-03-18T07:47:17.287Z,16.88
2018-03-18T07:48:17.257Z,16.88
2018-03-18T07:49:17.235Z,16.88
2018-03-18T07:50:17.205Z,16.88
2018-03-18T07:51:17.179Z,16.88
2018-03-18T07:52:17.156Z,16.88
2018-03-18T07:53:17.161Z,16.88
2018-03-18T07:54:17.100Z,16.88
2018-03-18T07:55:17.076Z,16.88
2018-03-18T07:56:17.058Z,16.88
2018-03-18T07:57:17.021Z,16.88
2018-03-18T07:58:17.004Z,16.88
2018-03-18T07:59:16.968Z,16.88
2018-03-18T08:00:16.948Z,16.88
2018-03-18T08:01:16.916Z,16.88
2018-03-18T08:02:16.889Z,16.88
2018-03-18T08:03:16.876Z,16.88
2018-03-18T08:04:16.835Z,16.88
2018-03-18T08:05:16.812Z,16.88
2018-03-18T08:06:16.782Z,16.88
2018-03-18T08:07:16.754Z,16.88
2018-03-18T08:08:16.781Z,16.88
2018-03-18T08:09:16.704Z,16.88
2018-03-18T08:10:16.678Z,16.88
2018-03-18T08:11:16.654Z,16.88
2018-03-18T08:12:16.625Z,16.88
2018-03-18T08:13:16.600Z,22.50
2018-03-18T08:14:16.584Z,22.50
2018-03-18T08:15:16.546Z,22.50
2018-03-18T08:16:16.522Z,22.50
2018-03-18T08:17:16.493Z,22.50
2018-03-18T08:18:16.467Z,22.50
2018-03-18T08:19:16.442Z,22.50
2018-03-18T08:20:16.416Z,22.50
2018-03-18T08:21:16.396Z,22.50
2018-03-18T08:22:16.363Z,22.50
2018-03-18T08:23:16.336Z,22.50
2018-03-18T08:24:16.312Z,22.50
2018-03-18T08:25:16.291Z,22.50
2018-03-18T08:26:16.284Z,22.50
2018-03-18T08:27:16.236Z,22.50
2018-03-18T08:28:16.204Z,22.50
2018-03-18T08:29:16.181Z,22.50
2018-03-18T08:30:16.155Z,22.50
2018-03-18T08:31:16.126Z,22.50
2018-03-18T08:32:16.103Z,22.50
2018-03-18T08:33:16.074Z,22.50
2018-03-18T08:34:16.056Z,22.50
2018-03-18T08:35:16.023Z,22.50
2018-03-18T08:36:15.995Z,22.50
2018-03-18T08:37:15.974Z,22.50
2018-03-18T08:38:15.950Z,22.50
2018-03-18T08:39:15.914Z,22.50
2018-03-18T08:40:15.905Z,22.50
2018-03-18T08:41:15.864Z,22.50
2018-03-18T08:42:15.838Z,22.50
2018-03-18T08:43:15.815Z,22.50
2018-03-18T08:44:15.784Z,22.50
2018-03-18T08:45:15.767Z,22.50
2018-03-18T08:46:15.741Z,22.50
2018-03-18T08:47:15.708Z,22.50
2018-03-18T08:48:15.684Z,22.50
2018-03-18T08:49:15.658Z,22.50
2018-03-18T08:50:15.635Z,22.50
2018-03-18T08:51:15.623Z,22.50
2018-03-18T08:52:15.639Z,22.50
2018-03-18T08:53:15.555Z,22.50
2018-03-18T08:54:15.531Z,22.50
2018-03-18T08:55:15.503Z,22.50
2018-03-18T08:56:15.477Z,22.50
2018-03-18T08:57:15.453Z,22.50
2018-03-18T08:58:15.431Z,22.50
2018-03-18T08:59:15.404Z,22.50
2018-03-18T09:00:15.371Z,22.50
2018-03-18T09:01:15.358Z,22.50
2018-03-18T09:02:15.328Z,22.50
2018-03-18T09:03:15.293Z,22.50
2018-03-18T09:04:15.269Z,22.50
2018-03-18T09:05:15.244Z,22.50
2018-03-18T09:06:15.213Z,22.50
2018-03-18T09:07:15.195Z,22.50
2018-03-18T09:08:15.162Z,22.50
2018-03-18T09:09:15.185Z,22.50
2018-03-18T09:10:15.111Z,28.13
2018-03-18T09:11:15.094Z,28.13
2018-03-18T09:12:15.059Z,28.13
2018-03-18T09:13:15.032Z,28.13
2018-03-18T09:14:15.005Z,28.13
2018-03-18T09:15:14.989Z,28.13
2018-03-18T09:16:14.955Z,28.13
2018-03-18T09:17:14.934Z,28.13
2018-03-18T09:18:14.906Z,33.75
2018-03-18T09:19:14.878Z,33.75
2018-03-18T09:20:14.854Z,33.75
2018-03-18T09:21:14.830Z,33.75
2018-03-18T09:22:14.803Z,39.38
2018-03-18T09:23:14.777Z,33.75
2018-03-18T09:24:14.756Z,33.75
2018-03-18T09:25:14.738Z,33.75
2018-03-18T09:26:14.694Z,33.75
2018-03-18T09:27:14.685Z,33.75
2018-03-18T09:28:14.645Z,33.75
2018-03-18T09:29:14.632Z,33.75
2018-03-18T09:30:14.632Z,33.75
2018-03-18T09:31:14.569Z,33.75
2018-03-18T09:32:14.551Z,33.75
2018-03-18T09:33:14.521Z,33.75
2018-03-18T09:34:14.489Z,39.38
2018-03-18T09:35:14.465Z,39.38
2018-03-18T09:36:14.440Z,39.38
2018-03-18T09:37:14.418Z,39.38
2018-03-18T09:38:14.387Z,39.38
2018-03-18T09:39:14.360Z,39.38
2018-03-18T09:40:14.351Z,39.38
2018-03-18T09:41:14.320Z,33.75
2018-03-18T09:42:14.284Z,33.75
2018-03-18T09:43:14.261Z,33.75
2018-03-18T09:44:14.242Z,39.38
2018-03-18T09:45:14.228Z,39.38
2018-03-18T09:46:14.181Z,33.75
2018-03-18T09:47:14.155Z,39.38
2018-03-18T09:48:14.133Z,39.38
2018-03-18T09:49:14.104Z,33.75
2018-03-18T09:50:14.085Z,33.75
2018-03-18T09:51:14.057Z,33.75
2018-03-18T09:52:14.031Z,39.38
2018-03-18T09:53:14.008Z,33.75
2018-03-18T09:54:13.984Z,39.38
2018-03-18T09:55:13.958Z,39.38
2018-03-18T09:56:13.926Z,39.38
2018-03-18T09:57:13.904Z,50.63
2018-03-18T09:58:13.875Z,39.38
2018-03-18T09:59:13.848Z,45.00
2018-03-18T10:00:13.837Z,45.00
2018-03-18T10:01:13.800Z,39.38
2018-03-18T10:02:13.787Z,39.38
2018-03-18T10:03:13.746Z,50.63
2018-03-18T10:04:13.720Z,45.00
2018-03-18T10:05:13.701Z,39.38
2018-03-18T10:06:13.693Z,39.38
2018-03-18T10:07:13.664Z,50.63
2018-03-18T10:08:13.639Z,61.88
2018-03-18T10:09:13.596Z,45.00
2018-03-18T10:10:13.569Z,67.50
2018-03-18T10:11:13.548Z,61.88
2018-03-18T10:12:13.529Z,50.63
2018-03-18T10:13:13.495Z,56.25
2018-03-18T10:14:13.466Z,39.38
2018-03-18T10:15:13.445Z,39.38
2018-03-18T10:16:13.416Z,39.38
2018-03-18T10:17:13.389Z,39.38
2018-03-18T10:18:13.372Z,33.75
2018-03-18T10:19:13.335Z,39.38
2018-03-18T10:20:13.352Z,50.63
2018-03-18T10:21:13.299Z,39.38
2018-03-18T10:22:13.264Z,56.25
2018-03-18T10:23:13.240Z,39.38
2018-03-18T10:24:13.215Z,39.38
2018-03-18T10:25:13.186Z,39.38
2018-03-18T10:26:13.167Z,39.38
2018-03-18T10:27:13.136Z,50.63
2018-03-18T10:28:13.109Z,39.38
2018-03-18T10:29:13.087Z,39.38
2018-03-18T10:30:13.065Z,33.75
2018-03-18T10:31:13.053Z,33.75
2018-03-18T10:32:13.015Z,33.75
2018-03-18T10:33:12.992Z,33.75
2018-03-18T10:34:12.969Z,33.75
2018-03-18T10:35:12.937Z,33.75
2018-03-18T10:36:12.907Z,39.38
2018-03-18T10:37:12.879Z,39.38
2018-03-18T10:38:12.857Z,39.38
2018-03-18T10:39:12.827Z,39.38
2018-03-18T10:40:12.809Z,39.38
2018-03-18T10:41:12.778Z,39.38
2018-03-18T10:42:12.759Z,39.38
2018-03-18T10:43:12.731Z,39.38
2018-03-18T10:44:12.701Z,39.38
2018-03-18T10:45:12.680Z,39.38
2018-03-18T10:46:12.667Z,39.38
2018-03-18T10:47:12.648Z,33.75
2018-03-18T10:48:12.598Z,33.75
2018-03-18T10:49:12.576Z,33.75
2018-03-18T10:50:12.554Z,33.75
2018-03-18T10:51:12.522Z,33.75
2018-03-18T10:52:12.496Z,33.75
2018-03-18T10:53:12.478Z,33.75
2018-03-18T10:54:12.446Z,33.75
2018-03-18T10:55:12.435Z,33.75
2018-03-18T10:56:12.398Z,33.75
2018-03-18T10:57:12.376Z,33.75
2018-03-18T10:58:12.346Z,39.38
2018-03-18T10:59:12.325Z,45.00
2018-03-18T11:00:12.292Z,39.38
2018-03-18T11:01:12.269Z,39.38
2018-03-18T11:02:12.243Z,39.38
2018-03-18T11:03:12.219Z,39.38
2018-03-18T11:04:12.198Z,39.38
2018-03-18T11:05:12.165Z,39.38
2018-03-18T11:06:12.149Z,39.38
2018-03-18T11:07:12.116Z,33.75
2018-03-18T11:08:12.105Z,33.75
2018-03-18T11:09:12.068Z,33.75
2018-03-18T11:10:12.040Z,39.38
2018-03-18T11:11:12.015Z,39.38
2018-03-18T11:12:11.990Z,39.38
2018-03-18T11:13:11.966Z,39.38
2018-03-18T11:14:11.943Z,33.75
2018-03-18T11:15:11.942Z,33.75
2018-03-18T11:16:11.941Z,33.75
2018-03-18T11:17:11.863Z,33.75
2018-03-18T11:18:11.837Z,33.75
2018-03-18T11:19:11.811Z,39.38
2018-03-18T11:20:11.789Z,39.38
2018-03-18T11:21:11.762Z,39.38
2018-03-18T11:22:11.736Z,39.38
2018-03-18T11:23:11.705Z,39.38
2018-03-18T11:24:11.693Z,39.38
2018-03-18T11:25:11.666Z,39.38
2018-03-18T11:26:11.645Z,39.38
2018-03-18T11:27:11.605Z,39.38
2018-03-18T11:28:11.580Z,39.38
2018-03-18T11:29:11.560Z,39.38
2018-03-18T11:30:11.562Z,39.38
2018-03-18T11:31:11.505Z,39.38
2018-03-18T11:32:11.485Z,39.38
2018-03-18T11:33:11.456Z,39.38
2018-03-18T11:34:11.427Z,39.38
2018-03-18T11:35:11.404Z,39.38
2018-03-18T11:36:11.376Z,39.38
2018-03-18T11:37:11.351Z,39.38
2018-03-18T11:38:11.338Z,39.38
2018-03-18T11:39:11.302Z,39.38
2018-03-18T11:40:11.331Z,39.38
2018-03-18T11:41:11.254Z,45.00
2018-03-18T11:42:11.225Z,56.25
2018-03-18T11:43:11.198Z,61.88
2018-03-18T11:44:11.177Z,67.50
2018-03-18T11:45:11.148Z,78.75
2018-03-18T11:46:11.127Z,73.13
2018-03-18T11:47:11.096Z,78.75
2018-03-18T11:48:11.075Z,90.00
2018-03-18T11:49:11.044Z,61.88
2018-03-18T11:50:11.023Z,56.25
2018-03-18T11:51:10.998Z,56.25
2018-03-18T11:52:10.973Z,50.63
2018-03-18T11:53:10.953Z,56.25
2018-03-18T11:54:10.936Z,50.63
2018-03-18T11:55:10.897Z,50.63
2018-03-18T11:56:10.878Z,45.00
2018-03-18T11:57:10.857Z,45.00
2018-03-18T11:58:10.822Z,45.00
2018-03-18T11:59:10.810Z,45.00
2018-03-18T12:00:10.773Z,61.88
2018-03-18T12:01:10.763Z,56.25
2018-03-18T12:02:10.750Z,61.88
2018-03-18T12:03:10.701Z,67.50
2018-03-18T12:04:10.675Z,61.88
2018-03-18T12:05:10.656Z,67.50
2018-03-18T12:06:10.623Z,50.63
2018-03-18T12:07:10.599Z,50.63
2018-03-18T12:08:10.570Z,39.38
2018-03-18T12:09:10.553Z,39.38
2018-03-18T12:10:10.519Z,61.88
2018-03-18T12:11:10.511Z,45.00
2018-03-18T12:12:10.479Z,45.00
2018-03-18T12:13:10.446Z,39.38
2018-03-18T12:14:10.426Z,50.63
2018-03-18T12:15:10.395Z,45.00
2018-03-18T12:16:10.370Z,45.00
2018-03-18T12:17:10.346Z,50.63
2018-03-18T12:18:10.326Z,50.63
2018-03-18T12:19:10.296Z,50.63
2018-03-18T12:20:10.277Z,50.63
2018-03-18T12:21:10.246Z,61.88
2018-03-18T12:22:10.220Z,61.88
2018-03-18T12:23:10.196Z,67.50
2018-03-18T12:24:10.174Z,67.50
2018-03-18T12:25:10.145Z,61.88
2018-03-18T12:26:10.123Z,61.88
2018-03-18T12:27:10.104Z,61.88
2018-03-18T12:28:10.072Z,61.88
2018-03-18T12:29:10.049Z,61.88
2018-03-18T12:30:10.023Z,61.88
2018-03-18T12:31:09.997Z,61.88
2018-03-18T12:32:09.975Z,50.63
2018-03-18T12:33:09.944Z,50.63
2018-03-18T12:34:09.919Z,50.63
2018-03-18T12:35:09.893Z,45.00
2018-03-18T12:36:09.873Z,45.00
2018-03-18T12:37:09.853Z,56.25
2018-03-18T12:38:09.822Z,56.25
2018-03-18T12:39:09.829Z,39.38
2018-03-18T12:40:09.777Z,56.25
2018-03-18T12:41:09.746Z,56.25
2018-03-18T12:42:09.721Z,56.25
2018-03-18T12:43:09.700Z,56.25
2018-03-18T12:44:09.674Z,56.25
2018-03-18T12:45:09.650Z,50.63
2018-03-18T12:46:09.628Z,50.63
2018-03-18T12:47:09.598Z,50.63
2018-03-18T12:48:09.577Z,56.25
2018-03-18T12:49:09.559Z,50.63
2018-03-18T12:50:09.528Z,50.63
2018-03-18T12:51:09.499Z,50.63
2018-03-18T12:52:09.471Z,56.25
2018-03-18T12:53:09.444Z,56.25
2018-03-18T12:54:09.419Z,56.25
2018-03-18T12:55:09.398Z,56.25
2018-03-18T12:56:09.372Z,56.25
2018-03-18T12:57:09.345Z,56.25
2018-03-18T12:58:09.320Z,56.25
2018-03-18T12:59:09.299Z,56.25
2018-03-18T13:00:09.281Z,56.25
2018-03-18T13:01:09.255Z,56.25
2018-03-18T13:02:09.220Z,56.25
2018-03-18T13:03:09.195Z,56.25
2018-03-18T13:04:09.174Z,56.25
2018-03-18T13:05:09.150Z,61.88
2018-03-18T13:06:09.129Z,56.25
2018-03-18T13:07:09.098Z,56.25
2018-03-18T13:08:09.072Z,56.25